Time;durP1;ratioP1;P1;durP2;ratioP2;P2;SDS_P1;SDS_P2;PMS_P1;PMS_P2;Temp;Humidity;BMP_temperature;BMP_pressure;BME280_temperature;BME280_humidity;BME280_pressure;Samples;Min_cycle;Max_cycle;Signal;HPM_P1;HPM_P2
2023/07/05 00:01:30;;;;;;;21.67;8.18;;;16.00;99.90;;;;;;5006718;28;20052;-71
2023/07/05 00:03:55;;;;;;;11.18;7.65;;;15.90;99.90;;;;;;4995259;28;20385;-71
2023/07/05 00:06:21;;;;;;;15.48;8.45;;;15.90;99.90;;;;;;4997678;28;20065;-71
2023/07/05 00:08:47;;;;;;;18.58;8.50;;;16.00;99.90;;;;;;4996732;28;20121;-71
2023/07/05 00:11:13;;;;;;;14.30;8.52;;;16.00;99.90;;;;;;5014124;28;20041;-70
2023/07/05 00:13:38;;;;;;;12.35;8.15;;;16.00;99.90;;;;;;5006163;28;20042;-71
2023/07/05 00:16:04;;;;;;;13.63;8.23;;;16.00;99.90;;;;;;5003125;28;20611;-70
2023/07/05 00:18:30;;;;;;;13.23;8.65;;;16.00;99.90;;;;;;4996046;28;20037;-70
2023/07/05 00:21:04;;;;;;;14.77;8.05;;;16.00;99.90;;;;;;5003047;28;20427;-70
2023/07/05 00:23:32;;;;;;;12.52;8.57;;;16.10;99.90;;;;;;5000118;28;20062;-71
2023/07/05 00:25:58;;;;;;;16.08;8.30;;;16.10;99.90;;;;;;4989603;28;20084;-70
2023/07/05 00:28:23;;;;;;;17.30;9.05;;;16.10;99.90;;;;;;4997666;28;20045;-68
2023/07/05 00:30:49;;;;;;;14.88;8.98;;;16.10;99.90;;;;;;5005087;28;20052;-70
2023/07/05 00:33:15;;;;;;;15.00;8.70;;;16.10;99.90;;;;;;4996134;28;20116;-71
2023/07/05 00:35:52;;;;;;;12.68;8.75;;;16.10;99.90;;;;;;5003576;28;20056;-71
2023/07/05 00:38:19;;;;;;;19.70;10.00;;;16.10;99.90;;;;;;5029494;28;20038;-69
2023/07/05 00:40:45;;;;;;;15.05;9.55;;;16.10;99.90;;;;;;4998009;28;20048;-70
2023/07/05 00:43:12;;;;;;;14.43;9.38;;;16.00;99.90;;;;;;5013473;28;20065;-70
2023/07/05 00:45:57;;;;;;;16.63;9.50;;;16.10;99.90;;;;;;5019248;28;20038;-71
2023/07/05 00:48:34;;;;;;;15.95;9.35;;;16.10;99.90;;;;;;4995428;28;20073;-71
2023/07/05 00:51:04;;;;;;;13.77;9.27;;;16.10;99.90;;;;;;4996590;28;20081;-71
2023/07/05 00:53:30;;;;;;;13.50;9.43;;;16.00;99.90;;;;;;5000843;28;20099;-70
2023/07/05 00:56:03;;;;;;;15.82;9.25;;;16.10;99.90;;;;;;4998140;28;20168;-68
2023/07/05 00:58:29;;;;;;;18.30;9.43;;;16.10;99.90;;;;;;4995624;28;20041;-70
2023/07/05 01:00:55;;;;;;;17.02;9.85;;;16.10;99.90;;;;;;4996122;28;20137;-70
2023/07/05 01:03:22;;;;;;;15.13;9.45;;;16.10;99.90;;;;;;4999853;28;20168;-70
2023/07/05 01:05:55;;;;;;;13.68;8.90;;;16.10;99.90;;;;;;5019382;28;20558;-71
2023/07/05 01:08:21;;;;;;;16.52;9.23;;;16.10;99.90;;;;;;5012918;28;20042;-71
2023/07/05 01:10:54;;;;;;;16.50;9.50;;;16.10;99.90;;;;;;5019696;28;20049;-71
2023/07/05 01:13:39;;;;;;;18.35;9.68;;;16.10;99.90;;;;;;5017051;28;20026;-71
2023/07/05 01:16:35;;;;;;;16.98;10.07;;;16.10;99.90;;;;;;5005890;28;20118;-68
2023/07/05 01:19:37;;;;;;;17.35;10.25;;;16.00;99.90;;;;;;5006617;28;20032;-70
2023/07/05 01:22:11;;;;;;;18.92;10.10;;;16.00;99.90;;;;;;5006327;28;20045;-71
2023/07/05 01:25:27;;;;;;;19.88;10.60;;;16.00;99.90;;;;;;5015106;28;20599;-71
2023/07/05 01:28:14;;;;;;;18.17;10.20;;;15.90;99.90;;;;;;4925247;29;20183;-70
2023/07/05 01:30:58;;;;;;;21.42;11.05;;;15.90;99.90;;;;;;4935625;29;20077;-71
2023/07/05 01:33:32;;;;;;;20.02;10.43;;;15.80;99.90;;;;;;5000790;28;20053;-71
2023/07/05 01:35:58;;;;;;;16.52;10.25;;;15.70;99.90;;;;;;5002376;28;20119;-70
2023/07/05 01:38:23;;;;;;;17.98;11.52;;;15.70;99.90;;;;;;4995946;28;20052;-70
2023/07/05 01:40:54;;;;;;;18.40;9.88;;;15.60;99.90;;;;;;4994975;28;20038;-70
2023/07/05 01:43:21;;;;;;;20.40;11.73;;;15.60;99.90;;;;;;4997236;28;20045;-72
2023/07/05 01:46:26;;;;;;;21.23;11.45;;;15.60;99.90;;;;;;5015681;28;20045;-69
2023/07/05 01:49:01;;;;;;;18.30;11.25;;;15.60;99.90;;;;;;4994479;28;20046;-70
2023/07/05 01:51:56;;;;;;;17.63;11.27;;;15.50;99.90;;;;;;4994721;28;20041;-71
2023/07/05 01:54:34;;;;;;;19.83;11.07;;;15.50;99.90;;;;;;5001734;28;20038;-71
2023/07/05 01:57:16;;;;;;;19.08;11.38;;;15.50;99.90;;;;;;4994485;28;20054;-71
2023/07/05 02:00:05;;;;;;;22.10;11.55;;;15.50;99.90;;;;;;4993400;28;20052;-71
2023/07/05 02:02:36;;;;;;;23.08;11.65;;;15.50;99.90;;;;;;5023049;28;20045;-70
2023/07/05 02:05:03;;;;;;;;;;;15.50;99.90;;;;;;5014450;28;20049;-71
2023/07/05 02:07:30;;;;;;;18.55;11.02;;;15.40;99.90;;;;;;5031283;28;20414;-71
2023/07/05 02:09:56;;;;;;;18.15;10.70;;;15.40;99.90;;;;;;5002042;28;20488;-69
2023/07/05 02:12:23;;;;;;;19.05;11.23;;;15.40;99.90;;;;;;4994276;28;20044;-69
2023/07/05 02:14:48;;;;;;;20.13;11.38;;;15.40;99.90;;;;;;5012050;28;20048;-69
2023/07/05 02:17:15;;;;;;;19.98;11.75;;;15.40;99.90;;;;;;5001031;28;20033;-71
2023/07/05 02:19:41;;;;;;;21.50;12.00;;;15.40;99.90;;;;;;5017640;28;20186;-69
2023/07/05 02:22:06;;;;;;;19.02;11.15;;;15.40;99.90;;;;;;4993888;28;20111;-69
2023/07/05 02:24:32;;;;;;;17.58;11.38;;;15.40;99.90;;;;;;4994860;28;20042;-71
2023/07/05 02:26:59;;;;;;;16.13;11.05;;;15.40;99.90;;;;;;4984006;28;20411;-71
2023/07/05 02:29:25;;;;;;;16.92;10.38;;;15.30;99.90;;;;;;5011199;28;20045;-71
2023/07/05 02:31:51;;;;;;;17.73;11.48;;;15.40;99.90;;;;;;4992006;28;20088;-71
2023/07/05 02:34:17;;;;;;;18.48;11.35;;;15.40;99.90;;;;;;4990990;28;20038;-72
2023/07/05 02:36:42;;;;;;;18.05;11.57;;;15.40;99.90;;;;;;4997659;28;20053;-69
2023/07/05 02:39:08;;;;;;;18.25;11.52;;;15.30;99.90;;;;;;5002006;28;20061;-69
2023/07/05 02:41:34;;;;;;;15.75;10.95;;;15.40;99.90;;;;;;5011574;28;20041;-70
2023/07/05 02:43:59;;;;;;;21.13;11.70;;;15.40;99.90;;;;;;5015306;28;20041;-70
2023/07/05 02:46:26;;;;;;;16.38;10.85;;;15.40;99.90;;;;;;5022540;28;20428;-71
2023/07/05 02:48:57;;;;;;;20.05;11.43;;;15.30;99.90;;;;;;4993425;28;20077;-71
2023/07/05 02:51:29;;;;;;;19.27;11.25;;;15.40;99.90;;;;;;5016377;28;20427;-71
2023/07/05 02:53:55;;;;;;;20.67;12.13;;;15.30;99.90;;;;;;4993903;28;20164;-71
2023/07/05 02:56:21;;;;;;;22.00;11.82;;;15.30;99.90;;;;;;4993966;28;20042;-69
2023/07/05 02:58:46;;;;;;;18.23;11.57;;;15.40;99.90;;;;;;5028463;28;20441;-69
2023/07/05 03:01:12;;;;;;;18.17;11.50;;;15.40;99.90;;;;;;5023563;28;20121;-70
2023/07/05 03:03:38;;;;;;;20.73;11.30;;;15.40;99.90;;;;;;5014826;28;20463;-71
2023/07/05 03:06:04;;;;;;;19.70;11.05;;;15.40;99.90;;;;;;4997855;28;20046;-71
2023/07/05 03:08:30;;;;;;;17.77;10.52;;;15.40;99.90;;;;;;5024108;28;20042;-71
2023/07/05 03:10:57;;;;;;;19.33;10.77;;;15.40;99.90;;;;;;4998859;28;20048;-71
2023/07/05 03:13:26;;;;;;;17.55;10.68;;;15.40;99.90;;;;;;5015423;28;20038;-70
2023/07/05 03:15:52;;;;;;;15.40;9.90;;;15.50;99.90;;;;;;5013866;28;20045;-71
2023/07/05 03:18:18;;;;;;;21.15;10.73;;;15.50;99.90;;;;;;5003446;28;20029;-70
2023/07/05 03:20:47;;;;;;;15.05;10.23;;;15.50;99.90;;;;;;4997506;28;20132;-70
2023/07/05 03:23:16;;;;;;;16.58;10.52;;;15.60;99.90;;;;;;4997692;28;20053;-71
2023/07/05 03:25:57;;;;;;;24.85;10.18;;;15.60;99.90;;;;;;5029030;28;20045;-71
2023/07/05 03:28:25;;;;;;;19.33;10.52;;;15.60;99.90;;;;;;4997075;28;20045;-71
2023/07/05 03:30:59;;;;;;;16.75;10.25;;;15.70;99.90;;;;;;4996114;28;20042;-71
2023/07/05 03:33:25;;;;;;;19.38;10.93;;;15.70;99.90;;;;;;5014891;28;20052;-71
2023/07/05 03:35:55;;;;;;;20.77;10.98;;;15.80;99.90;;;;;;5007153;28;20060;-69
2023/07/05 03:38:22;;;;;;;15.93;10.80;;;15.80;99.90;;;;;;5022348;28;20103;-71
2023/07/05 03:40:59;;;;;;;17.27;10.73;;;15.80;99.90;;;;;;5032659;28;20037;-70
2023/07/05 03:43:26;;;;;;;19.30;11.05;;;15.80;99.90;;;;;;5008366;28;20116;-71
2023/07/05 03:45:52;;;;;;;18.48;11.57;;;15.80;99.90;;;;;;5000621;28;20662;-71
2023/07/05 03:48:20;;;;;;;16.50;10.82;;;15.80;99.90;;;;;;5024933;28;20457;-71
2023/07/05 03:50:46;;;;;;;15.13;9.13;;;15.90;99.90;;;;;;5003611;28;20046;-70
2023/07/05 03:53:12;;;;;;;13.13;9.75;;;16.00;99.90;;;;;;5027981;28;20039;-70
2023/07/05 03:55:37;;;;;;;17.08;9.98;;;16.00;99.90;;;;;;5025256;28;20033;-69
2023/07/05 03:58:03;;;;;;;16.40;10.38;;;16.00;99.90;;;;;;5005170;28;20682;-71
2023/07/05 04:00:29;;;;;;;16.73;10.90;;;16.00;99.90;;;;;;5015563;28;20092;-71
2023/07/05 04:02:54;;;;;;;17.42;10.10;;;16.10;99.90;;;;;;5014378;28;20068;-71
2023/07/05 04:05:21;;;;;;;14.43;8.90;;;16.10;99.90;;;;;;4996509;28;20377;-70
2023/07/05 04:07:47;;;;;;;13.10;9.20;;;16.20;99.90;;;;;;5010766;28;20419;-70
2023/07/05 04:10:13;;;;;;;11.20;8.05;;;16.20;99.90;;;;;;5003865;28;20042;-69
2023/07/05 04:12:38;;;;;;;10.50;6.60;;;16.30;99.90;;;;;;4996983;28;20040;-70
2023/07/05 04:15:04;;;;;;;10.98;6.53;;;16.30;99.90;;;;;;5004420;28;20040;-71
2023/07/05 04:17:30;;;;;;;9.57;6.78;;;16.30;99.90;;;;;;5000141;28;20038;-71
2023/07/05 04:19:56;;;;;;;10.82;5.63;;;16.30;99.90;;;;;;4996293;28;20053;-71
2023/07/05 04:22:22;;;;;;;7.20;5.20;;;16.30;99.90;;;;;;5018895;28;20041;-71
2023/07/05 04:24:48;;;;;;;10.95;5.28;;;16.30;99.90;;;;;;5003906;28;20072;-71
2023/07/05 04:27:15;;;;;;;11.27;5.50;;;16.30;99.90;;;;;;4996104;28;20038;-70
2023/07/05 04:29:41;;;;;;;7.97;5.03;;;16.30;99.90;;;;;;4996277;28;20508;-71
2023/07/05 04:32:06;;;;;;;6.75;4.32;;;16.20;99.90;;;;;;4995247;28;20025;-71
2023/07/05 04:34:32;;;;;;;7.20;4.30;;;16.20;99.90;;;;;;5018118;28;20042;-71
2023/07/05 04:36:58;;;;;;;5.88;4.00;;;16.20;99.90;;;;;;4996231;28;20489;-71
2023/07/05 04:39:24;;;;;;;6.32;3.72;;;16.10;99.90;;;;;;5017074;28;20073;-71
2023/07/05 04:41:49;;;;;;;6.60;4.60;;;16.00;99.90;;;;;;5016072;28;20073;-71
2023/07/05 04:44:15;;;;;;;7.45;4.57;;;15.80;99.90;;;;;;5012560;28;20066;-71
2023/07/05 04:46:41;;;;;;;7.90;4.57;;;15.60;99.90;;;;;;5024059;28;20957;-71
2023/07/05 04:49:06;;;;;;;10.07;5.13;;;15.60;99.90;;;;;;5017571;28;20453;-71
2023/07/05 04:51:32;;;;;;;5.70;4.63;;;15.50;99.90;;;;;;5031319;28;20042;-71
2023/07/05 04:53:58;;;;;;;7.30;4.90;;;15.40;99.90;;;;;;5031855;28;20084;-71
2023/07/05 04:56:24;;;;;;;8.45;5.68;;;15.20;99.90;;;;;;5020734;28;20072;-71
2023/07/05 04:58:49;;;;;;;9.07;5.20;;;15.10;99.90;;;;;;5031441;28;20041;-71
2023/07/05 05:01:15;;;;;;;7.15;5.38;;;15.10;99.90;;;;;;4998089;28;20451;-71
2023/07/05 05:03:41;;;;;;;7.45;5.40;;;14.90;99.90;;;;;;5006734;28;20111;-71
2023/07/05 05:06:07;;;;;;;9.07;5.35;;;14.80;99.90;;;;;;5025517;28;20041;-70
2023/07/05 05:08:33;;;;;;;6.78;4.90;;;14.80;99.90;;;;;;4994697;28;20046;-70
2023/07/05 05:11:00;;;;;;;7.35;5.10;;;14.90;99.90;;;;;;5012371;28;20087;-69
2023/07/05 05:13:27;;;;;;;7.20;4.78;;;14.90;99.90;;;;;;5028672;28;20450;-71
2023/07/05 05:15:54;;;;;;;8.00;5.40;;;14.90;99.90;;;;;;5014651;28;20042;-70
2023/07/05 05:18:21;;;;;;;11.27;5.55;;;14.90;99.90;;;;;;5013197;28;20052;-70
2023/07/05 05:20:46;;;;;;;6.28;4.63;;;14.90;99.90;;;;;;5016301;28;20643;-70
2023/07/05 05:23:12;;;;;;;7.22;4.55;;;14.90;99.90;;;;;;5027311;28;20129;-71
2023/07/05 05:25:42;;;;;;;7.63;5.00;;;14.90;99.90;;;;;;4978162;28;20037;-70
2023/07/05 05:28:08;;;;;;;7.55;4.60;;;15.00;99.90;;;;;;4997241;28;20495;-71
2023/07/05 05:30:35;;;;;;;7.38;4.50;;;15.20;99.90;;;;;;4996675;28;20392;-70
2023/07/05 05:33:02;;;;;;;8.05;4.20;;;15.20;99.90;;;;;;4986046;28;20495;-68
2023/07/05 05:35:29;;;;;;;8.50;4.57;;;15.30;99.90;;;;;;4985399;28;20038;-74
2023/07/05 05:37:55;;;;;;;6.60;3.88;;;15.20;99.90;;;;;;5000292;28;20049;-71
2023/07/05 05:40:21;;;;;;;5.93;4.18;;;15.20;99.90;;;;;;4996890;28;20038;-70
2023/07/05 05:42:46;;;;;;;6.13;4.30;;;15.20;99.90;;;;;;4994197;28;20427;-70
2023/07/05 05:45:12;;;;;;;6.88;4.22;;;15.20;99.90;;;;;;4994191;28;20041;-73
2023/07/05 05:47:37;;;;;;;7.82;3.97;;;15.30;99.90;;;;;;5024868;28;20571;-71
2023/07/05 05:50:04;;;;;;;7.47;4.22;;;15.30;99.90;;;;;;4988854;28;20073;-74
2023/07/05 05:52:30;;;;;;;6.57;4.20;;;15.30;99.90;;;;;;4990894;28;20068;-74
2023/07/05 05:54:56;;;;;;;7.85;4.55;;;15.30;99.90;;;;;;5013049;28;20304;-72
2023/07/05 05:57:21;;;;;;;6.85;4.05;;;15.30;99.90;;;;;;5005855;28;20037;-74
2023/07/05 05:59:47;;;;;;;5.82;3.50;;;15.30;99.90;;;;;;4993002;28;20067;-71
2023/07/05 06:02:13;;;;;;;8.00;4.20;;;15.30;99.90;;;;;;5010301;28;20044;-70
2023/07/05 06:04:38;;;;;;;7.97;4.13;;;15.30;99.90;;;;;;4998375;28;20156;-69
2023/07/05 06:07:04;;;;;;;8.13;4.30;;;15.30;99.90;;;;;;5008286;28;20038;-70
2023/07/05 06:09:36;;;;;;;7.82;4.47;;;15.20;99.90;;;;;;5028076;28;20057;-69
2023/07/05 06:12:02;;;;;;;8.13;4.47;;;15.20;99.90;;;;;;5026946;28;20037;-70
2023/07/05 06:14:27;;;;;;;7.25;4.55;;;15.20;99.90;;;;;;5023500;28;20052;-71
2023/07/05 06:16:53;;;;;;;6.45;3.55;;;15.20;99.90;;;;;;5008533;28;20046;-71
2023/07/05 06:19:19;;;;;;;8.55;4.68;;;15.40;99.90;;;;;;5014075;28;20539;-70
2023/07/05 06:21:44;;;;;;;9.70;4.25;;;15.60;99.90;;;;;;5001494;28;20042;-71
2023/07/05 06:24:10;;;;;;;9.18;4.40;;;15.80;99.90;;;;;;5021848;28;20041;-69
2023/07/05 06:26:35;;;;;;;8.50;4.43;;;15.80;99.90;;;;;;5027445;28;20083;-70
2023/07/05 06:29:01;;;;;;;7.00;4.32;;;15.80;99.90;;;;;;5019026;28;20037;-72
2023/07/05 06:31:32;;;;;;;6.95;4.40;;;16.00;99.90;;;;;;5011884;28;20045;-70
2023/07/05 06:34:01;;;;;;;8.13;4.22;;;16.10;99.90;;;;;;4994280;28;20057;-72
2023/07/05 06:36:27;;;;;;;7.50;4.13;;;16.10;99.90;;;;;;4999883;28;20041;-71
2023/07/05 06:38:52;;;;;;;6.22;4.15;;;16.10;99.90;;;;;;5011135;28;20402;-69
2023/07/05 06:41:18;;;;;;;7.85;4.13;;;15.90;99.90;;;;;;4993883;28;20049;-71
2023/07/05 06:43:44;;;;;;;6.63;3.85;;;15.90;99.90;;;;;;4995797;28;20357;-69
2023/07/05 06:46:10;;;;;;;8.85;4.35;;;15.90;99.90;;;;;;5020490;28;20540;-70
2023/07/05 06:48:36;;;;;;;6.75;3.70;;;15.90;99.90;;;;;;4995058;28;20061;-70
2023/07/05 06:51:02;;;;;;;8.27;3.92;;;15.80;99.90;;;;;;5031208;28;20399;-71
2023/07/05 06:53:28;;;;;;;6.85;3.80;;;15.80;99.90;;;;;;5028068;28;20045;-70
2023/07/05 06:55:54;;;;;;;6.28;3.70;;;15.80;99.90;;;;;;5007775;28;20043;-71
2023/07/05 06:58:20;;;;;;;6.47;3.80;;;15.70;99.90;;;;;;5006397;28;20045;-72
2023/07/05 07:00:46;;;;;;;8.20;4.07;;;15.60;99.90;;;;;;5011947;28;20120;-73
2023/07/05 07:03:12;;;;;;;6.70;4.38;;;15.50;99.90;;;;;;5015684;28;20377;-71
2023/07/05 07:05:38;;;;;;;6.25;3.95;;;15.40;99.90;;;;;;5011118;28;20049;-71
2023/07/05 07:08:04;;;;;;;9.05;3.70;;;15.40;99.90;;;;;;4993736;28;20504;-70
2023/07/05 07:10:29;;;;;;;9.18;4.05;;;15.50;99.90;;;;;;5017105;28;20435;-71
2023/07/05 07:12:55;;;;;;;7.13;4.22;;;15.50;99.90;;;;;;4994743;28;20050;-71
2023/07/05 07:15:21;;;;;;;6.57;3.92;;;15.40;99.90;;;;;;5000812;28;20396;-71
2023/07/05 07:17:46;;;;;;;8.55;4.05;;;15.20;99.90;;;;;;5023675;28;20499;-70
2023/07/05 07:20:14;;;;;;;6.63;4.15;;;15.00;99.90;;;;;;5012424;28;20045;-70
2023/07/05 07:22:39;;;;;;;7.43;4.28;;;14.90;99.90;;;;;;5011064;28;20037;-70
2023/07/05 07:25:06;;;;;;;6.50;3.97;;;15.00;99.90;;;;;;5011579;28;20036;-70
2023/07/05 07:27:32;;;;;;;10.80;4.47;;;15.20;99.90;;;;;;5003614;28;20415;-70
2023/07/05 07:29:58;;;;;;;6.97;3.80;;;15.40;99.90;;;;;;4999392;28;20125;-70
2023/07/05 07:32:24;;;;;;;7.93;3.58;;;15.40;99.90;;;;;;4991614;28;20126;-74
2023/07/05 07:34:54;;;;;;;6.57;3.90;;;15.30;99.90;;;;;;5020306;28;20547;-71
2023/07/05 07:37:20;;;;;;;7.00;3.63;;;15.00;99.90;;;;;;5016883;28;20041;-69
2023/07/05 07:39:46;;;;;;;6.70;3.72;;;14.60;99.90;;;;;;5006861;28;20041;-71
2023/07/05 07:42:11;;;;;;;7.88;4.25;;;14.40;99.90;;;;;;4996681;28;20041;-70
2023/07/05 07:44:37;;;;;;;6.75;3.20;;;14.10;99.90;;;;;;5010475;28;20042;-70
2023/07/05 07:47:03;;;;;;;6.55;2.50;;;13.70;99.90;;;;;;5010960;28;20046;-71
2023/07/05 07:49:29;;;;;;;3.72;1.80;;;13.40;99.90;;;;;;4999394;28;20042;-71
2023/07/05 07:51:55;;;;;;;2.72;1.70;;;13.40;99.90;;;;;;5029458;28;20045;-71
2023/07/05 07:54:26;;;;;;;2.35;1.70;;;13.50;99.90;;;;;;5002807;28;20120;-71
2023/07/05 07:56:53;;;;;;;3.45;1.70;;;13.70;99.90;;;;;;5022976;28;20512;-69
2023/07/05 07:59:19;;;;;;;2.60;2.00;;;13.90;99.90;;;;;;5020000;28;20041;-70
2023/07/05 08:01:45;;;;;;;5.18;1.80;;;13.90;99.90;;;;;;5016463;28;20045;-70
2023/07/05 08:04:12;;;;;;;4.30;1.80;;;13.90;99.90;;;;;;5022474;28;20034;-70
2023/07/05 08:06:40;;;;;;;3.88;2.17;;;13.80;99.90;;;;;;5020248;28;20129;-70
2023/07/05 08:09:09;;;;;;;2.22;1.60;;;13.70;99.90;;;;;;5020725;28;20061;-71
2023/07/05 08:11:35;;;;;;;2.38;1.60;;;13.70;99.90;;;;;;4996366;28;20034;-71
2023/07/05 08:14:01;;;;;;;3.03;1.30;;;13.60;99.90;;;;;;5013973;28;20073;-70
2023/07/05 08:16:26;;;;;;;3.65;1.70;;;13.60;99.90;;;;;;5003173;28;20448;-71
2023/07/05 08:18:52;;;;;;;2.70;1.38;;;13.40;99.90;;;;;;5002830;28;20072;-71
2023/07/05 08:21:18;;;;;;;2.63;1.40;;;13.50;99.90;;;;;;4996598;28;20042;-71
2023/07/05 08:23:44;;;;;;;3.47;1.55;;;13.40;99.90;;;;;;5014632;28;20124;-71
2023/07/05 08:26:13;;;;;;;3.22;1.65;;;13.50;99.90;;;;;;5005437;28;20477;-70
2023/07/05 08:28:39;;;;;;;2.67;1.67;;;13.50;99.90;;;;;;5013533;28;20042;-70
2023/07/05 08:31:06;;;;;;;4.43;1.67;;;13.50;99.90;;;;;;4996438;28;20125;-71
2023/07/05 08:33:33;;;;;;;3.63;1.38;;;13.50;99.90;;;;;;4995548;28;20962;-69
2023/07/05 08:36:27;;;;;;;3.08;1.52;;;13.60;99.90;;;;;;5013378;28;20095;-71
2023/07/05 08:38:54;;;;;;;5.50;1.50;;;13.60;99.90;;;;;;5008309;28;20042;-70
2023/07/05 08:41:44;;;;;;;2.72;1.70;;;13.70;99.90;;;;;;5004946;28;20121;-69
2023/07/05 08:44:20;;;;;;;2.85;1.52;;;13.70;99.90;;;;;;5020419;28;20034;-70
2023/07/05 08:47:11;;;;;;;2.67;1.73;;;13.70;99.90;;;;;;5011997;28;20053;-73
2023/07/05 08:50:17;;;;;;;5.15;2.05;;;13.60;99.90;;;;;;5008242;28;20045;-69
2023/07/05 08:52:46;;;;;;;4.57;1.70;;;13.70;99.90;;;;;;4989852;28;20080;-72
2023/07/05 08:55:21;;;;;;;2.40;1.40;;;13.60;99.90;;;;;;4995213;28;20385;-70
2023/07/05 08:57:57;;;;;;;3.63;1.80;;;13.60;99.90;;;;;;4997113;28;20522;-68
2023/07/05 09:00:45;;;;;;;4.25;2.00;;;13.50;99.90;;;;;;5002568;28;20034;-68
2023/07/05 09:03:13;;;;;;;4.60;1.80;;;13.40;99.90;;;;;;4993034;28;20038;-69
2023/07/05 09:06:13;;;;;;;5.43;1.90;;;13.30;99.90;;;;;;5016079;28;20065;-69
2023/07/05 09:08:42;;;;;;;2.88;2.25;;;13.20;99.90;;;;;;4990732;28;20060;-68
2023/07/05 09:11:32;;;;;;;4.10;2.50;;;13.20;99.90;;;;;;5004089;28;20034;-69
2023/07/05 09:14:19;;;;;;;4.25;2.20;;;13.00;99.90;;;;;;4998189;28;20132;-67
2023/07/05 09:16:55;;;;;;;7.00;2.70;;;12.90;99.90;;;;;;4997662;28;20038;-68
2023/07/05 09:19:41;;;;;;;5.03;2.47;;;12.90;99.90;;;;;;5022007;28;20056;-70
2023/07/05 09:22:13;;;;;;;4.18;2.33;;;13.00;99.90;;;;;;4995148;28;20049;-70
2023/07/05 09:24:40;;;;;;;5.28;2.55;;;13.00;99.90;;;;;;4989584;22;20508;-63
2023/07/05 09:27:20;;;;;;;4.43;2.72;;;13.00;99.90;;;;;;4982412;28;20126;-62
2023/07/05 09:30:08;;;;;;;3.42;2.05;;;13.10;99.90;;;;;;4990274;28;20066;-62
2023/07/05 09:32:39;;;;;;;4.68;2.30;;;13.20;99.90;;;;;;4973953;28;20413;-63
2023/07/05 09:35:20;;;;;;;3.10;2.00;;;13.20;99.90;;;;;;4973773;28;20066;-62
2023/07/05 09:38:21;;;;;;;6.68;2.35;;;13.30;99.90;;;;;;4990156;28;20046;-62
2023/07/05 09:41:13;;;;;;;4.53;2.47;;;13.40;99.90;;;;;;4971902;28;20422;-62
2023/07/05 09:43:39;;;;;;;;;;;13.50;99.90;;;;;;4975947;28;20053;-62
2023/07/05 09:46:20;;;;;;;4.72;2.47;;;13.60;99.90;;;;;;4981571;28;20024;-65
2023/07/05 09:48:47;;;;;;;9.60;2.53;;;13.60;99.90;;;;;;4973656;28;20043;-63
2023/07/05 09:51:13;;;;;;;8.38;2.38;;;13.60;99.90;;;;;;4980654;28;20097;-62
2023/07/05 09:53:51;;;;;;;5.95;2.63;;;13.60;99.90;;;;;;4975183;28;20090;-62
2023/07/05 09:56:29;;;;;;;5.50;2.53;;;13.60;99.90;;;;;;4978044;28;21136;-62
2023/07/05 09:59:09;;;;;;;6.47;2.30;;;13.70;99.90;;;;;;4963912;28;20085;-62
2023/07/05 10:01:41;;;;;;;9.57;2.72;;;13.60;99.90;;;;;;4964779;28;20081;-66
2023/07/05 10:04:07;;;;;;;8.60;2.90;;;13.60;99.90;;;;;;4969999;28;20073;-62
2023/07/05 10:06:37;;;;;;;7.85;2.55;;;13.60;99.90;;;;;;4977610;28;20114;-62
2023/07/05 10:09:12;;;;;;;12.13;2.58;;;13.50;99.90;;;;;;4972608;28;20078;-62
2023/07/05 10:11:47;;;;;;;6.60;2.60;;;13.50;99.90;;;;;;4970707;28;20093;-63
2023/07/05 10:14:19;;;;;;;9.15;2.78;;;13.50;99.90;;;;;;4972219;28;20034;-63
2023/07/05 10:17:06;;;;;;;9.88;2.72;;;13.40;99.90;;;;;;4973037;28;20046;-62
2023/07/05 10:19:53;;;;;;;6.13;2.40;;;13.40;99.90;;;;;;4973164;28;20070;-62
2023/07/05 10:22:32;;;;;;;7.75;2.50;;;13.40;99.90;;;;;;4969567;28;20560;-62
2023/07/05 10:25:03;;;;;;;9.15;2.67;;;13.40;99.90;;;;;;4972335;28;20477;-62
2023/07/05 10:27:43;;;;;;;13.82;2.83;;;13.30;99.90;;;;;;4972465;28;20061;-63
2023/07/05 10:30:13;;;;;;;5.20;2.15;;;13.30;99.90;;;;;;4969911;28;20050;-62
2023/07/05 10:32:40;;;;;;;4.18;1.90;;;13.30;99.90;;;;;;4972102;28;20505;-63
2023/07/05 10:35:17;;;;;;;9.40;2.70;;;13.40;99.90;;;;;;4990826;28;20030;-62
2023/07/05 10:37:42;;;;;;;8.93;2.70;;;13.50;99.90;;;;;;4978977;28;20073;-62
2023/07/05 10:40:08;;;;;;;6.22;2.40;;;13.50;99.90;;;;;;4972277;28;20466;-62
2023/07/05 10:42:37;;;;;;;6.35;1.83;;;13.60;99.90;;;;;;4972558;28;20101;-63
2023/07/05 10:45:04;;;;;;;7.05;2.10;;;13.60;99.90;;;;;;4972733;28;20054;-62
2023/07/05 10:47:31;;;;;;;7.55;2.55;;;13.50;99.90;;;;;;4970847;28;20069;-66
2023/07/05 10:50:04;;;;;;;6.45;2.40;;;13.50;99.90;;;;;;4972088;28;20093;-62
2023/07/05 10:52:36;;;;;;;7.40;2.50;;;13.40;99.90;;;;;;4974756;28;20042;-63
2023/07/05 10:55:05;;;;;;;7.22;2.83;;;13.30;99.90;;;;;;4974360;28;20038;-63
2023/07/05 10:57:56;;;;;;;4.53;2.38;;;13.30;99.90;;;;;;4971428;28;20082;-64
2023/07/05 11:00:37;;;;;;;8.95;3.17;;;13.20;99.90;;;;;;4955059;28;20046;-63
2023/07/05 11:03:12;;;;;;;6.90;2.80;;;13.10;99.90;;;;;;4973893;28;20493;-62
2023/07/05 11:05:37;;;;;;;9.18;2.63;;;13.00;99.90;;;;;;4972348;28;20098;-63
2023/07/05 11:08:08;;;;;;;5.38;2.47;;;13.10;99.90;;;;;;4971962;28;20054;-62
2023/07/05 11:10:38;;;;;;;5.72;2.70;;;13.10;99.90;;;;;;4976739;28;20509;-63
2023/07/05 11:13:06;;;;;;;10.55;3.10;;;13.20;99.90;;;;;;4975502;28;20054;-63
2023/07/05 11:15:32;;;;;;;10.55;3.28;;;13.10;99.90;;;;;;4968005;28;20061;-64
2023/07/05 11:17:59;;;;;;;9.23;2.75;;;13.10;99.90;;;;;;4962947;28;20049;-63
2023/07/05 11:20:39;;;;;;;7.60;2.80;;;13.10;99.90;;;;;;4969820;28;20055;-62
2023/07/05 11:23:08;;;;;;;12.25;3.05;;;13.10;99.90;;;;;;4974880;28;20412;-62
2023/07/05 11:25:52;;;;;;;9.07;2.83;;;13.10;99.90;;;;;;4987362;28;20034;-62
2023/07/05 11:28:41;;;;;;;8.93;2.92;;;13.20;99.90;;;;;;4978141;28;20101;-62
2023/07/05 11:31:27;;;;;;;9.20;3.42;;;13.20;99.90;;;;;;4975222;28;20512;-63
2023/07/05 11:34:21;;;;;;;6.35;3.22;;;13.20;99.90;;;;;;4926746;28;20089;-62
2023/07/05 11:36:53;;;;;;;8.27;3.13;;;13.20;99.90;;;;;;4974980;28;20038;-63
2023/07/05 11:39:35;;;;;;;11.05;3.35;;;13.10;99.90;;;;;;4975322;28;20038;-63
2023/07/05 11:42:15;;;;;;;;;;;13.10;99.90;;;;;;4976454;28;20038;-62
2023/07/05 11:44:45;;;;;;;7.10;2.70;;;13.20;99.90;;;;;;4979765;28;19940;-63
2023/07/05 11:47:33;;;;;;;7.97;2.75;;;13.10;99.90;;;;;;4971600;28;20043;-62
2023/07/05 11:50:07;;;;;;;7.22;2.70;;;13.20;99.90;;;;;;4953882;28;20764;-62
2023/07/05 11:52:43;;;;;;;8.25;3.10;;;13.20;99.90;;;;;;4974863;28;20043;-62
2023/07/05 11:55:14;;;;;;;5.53;2.30;;;13.30;99.90;;;;;;4979571;28;20066;-62
2023/07/05 11:58:04;;;;;;;6.80;2.85;;;13.30;99.90;;;;;;4975245;28;20049;-63
2023/07/05 12:00:39;;;;;;;6.93;2.50;;;13.30;99.90;;;;;;4956563;28;20061;-66
2023/07/05 12:03:19;;;;;;;6.68;2.65;;;13.40;99.90;;;;;;4976413;28;20050;-61
2023/07/05 12:05:53;;;;;;;6.00;2.20;;;13.40;99.90;;;;;;4975230;28;20130;-62
2023/07/05 12:08:24;;;;;;;6.65;2.42;;;13.40;99.90;;;;;;4966517;28;20513;-62
2023/07/05 12:10:58;;;;;;;5.70;2.25;;;13.40;99.90;;;;;;4966922;28;20035;-66
2023/07/05 12:13:26;;;;;;;6.38;2.72;;;13.40;99.90;;;;;;4978817;28;20034;-62
2023/07/05 12:15:53;;;;;;;6.25;2.30;;;13.40;99.90;;;;;;4957959;28;20104;-62
2023/07/05 12:18:20;;;;;;;6.63;2.50;;;13.40;99.90;;;;;;4969880;28;20065;-62
2023/07/05 12:20:54;;;;;;;8.68;2.90;;;13.30;99.90;;;;;;4955026;28;20057;-62
2023/07/05 12:23:22;;;;;;;8.85;2.92;;;13.40;99.90;;;;;;4975439;28;20030;-62
2023/07/05 12:25:53;;;;;;;8.52;2.83;;;13.50;99.90;;;;;;4966097;28;20489;-63
2023/07/05 12:28:25;;;;;;;10.80;3.13;;;13.60;99.90;;;;;;4957066;28;20045;-61
2023/07/05 12:31:03;;;;;;;13.20;3.40;;;13.80;99.90;;;;;;4974132;28;20597;-61
2023/07/05 12:33:37;;;;;;;10.13;3.40;;;14.10;99.90;;;;;;4968863;28;20556;-65
2023/07/05 12:36:09;;;;;;;11.27;3.60;;;14.30;99.90;;;;;;4964008;28;20038;-63
2023/07/05 12:38:37;;;;;;;10.20;3.53;;;14.20;99.90;;;;;;4964991;28;20049;-66
2023/07/05 12:41:04;;;;;;;14.02;3.78;;;14.20;99.90;;;;;;4970421;28;20571;-63
2023/07/05 12:43:32;;;;;;;10.05;3.50;;;14.10;99.90;;;;;;4979016;28;20053;-62
2023/07/05 12:46:26;;;;;;;9.20;3.83;;;14.20;99.90;;;;;;4979692;28;20504;-65
2023/07/05 12:48:52;;;;;;;9.25;3.78;;;14.30;99.90;;;;;;4982255;28;20129;-64
2023/07/05 12:51:21;;;;;;;7.18;3.25;;;14.40;99.90;;;;;;4980855;28;20070;-62
2023/07/05 12:53:51;;;;;;;9.75;3.60;;;14.60;99.90;;;;;;4973097;28;20070;-63
2023/07/05 12:56:30;;;;;;;14.00;4.63;;;14.70;99.90;;;;;;4974333;28;20490;-63
2023/07/05 12:59:00;;;;;;;10.10;3.90;;;14.70;99.90;;;;;;4968670;28;20865;-62